createdAt,value
2023-03-02T00:00:11.649Z,33.32
2023-03-02T00:00:35.946Z,33.08
2023-03-02T00:01:03.643Z,33.20
2023-03-02T00:01:31.106Z,33.23
2023-03-02T00:01:56.435Z,33.21
2023-03-02T00:02:22.243Z,33.09
2023-03-02T00:02:46.379Z,33.08
2023-03-02T00:03:10.434Z,33.15
2023-03-02T00:03:33.385Z,33.17
2023-03-02T00:03:59.952Z,33.16
2023-03-02T00:04:25.688Z,33.17
2023-03-02T00:04:52.082Z,33.19
2023-03-02T00:05:14.479Z,33.26
2023-03-02T00:05:37.883Z,33.11
2023-03-02T00:06:00.938Z,33.07
2023-03-02T00:06:22.531Z,33.11
2023-03-02T00:06:44.288Z,33.03
2023-03-02T00:07:10.171Z,33.26
2023-03-02T00:07:35.649Z,33.46
2023-03-02T00:08:00.244Z,33.44
2023-03-02T00:08:24.094Z,33.39
2023-03-02T00:08:47.134Z,33.47
2023-03-02T00:09:09.859Z,33.43
2023-03-02T00:09:33.728Z,33.38
2023-03-02T00:09:55.453Z,33.51
2023-03-02T00:10:17.152Z,33.53
2023-03-02T00:10:38.835Z,33.86
2023-03-02T00:11:02.324Z,33.95
2023-03-02T00:11:23.948Z,33.78
2023-03-02T00:11:45.844Z,33.40
2023-03-02T00:12:08.270Z,33.79
2023-03-02T00:12:36.159Z,33.83
2023-03-02T00:13:00.417Z,33.98
2023-03-02T00:13:22.394Z,34.16
2023-03-02T00:13:44.232Z,34.09
2023-03-02T00:14:06.078Z,33.85
2023-03-02T00:14:28.726Z,33.96
2023-03-02T00:14:50.354Z,33.83
2023-03-02T00:15:12.063Z,33.96
2023-03-02T00:15:34.318Z,34.08
2023-03-02T00:15:57.015Z,34.14
2023-03-02T00:16:18.761Z,34.11
2023-03-02T00:16:40.796Z,34.17
2023-03-02T00:17:02.704Z,34.57
2023-03-02T00:17:30.198Z,34.38
2023-03-02T00:17:53.324Z,34.36
2023-03-02T00:18:16.341Z,34.47
2023-03-02T00:18:38.013Z,34.22
2023-03-02T00:18:59.763Z,34.03
2023-03-02T00:19:21.542Z,34.26
2023-03-02T00:19:44.799Z,34.29
2023-03-02T00:20:10.034Z,34.29
2023-03-02T00:20:31.860Z,34.28
2023-03-02T00:20:53.766Z,34.01
2023-03-02T00:21:15.532Z,33.56
2023-03-02T00:21:38.111Z,33.55
2023-03-02T00:21:59.710Z,33.69
2023-03-02T00:22:22.702Z,33.82
2023-03-02T00:22:45.848Z,34.03
2023-03-02T00:23:07.453Z,34.05
2023-03-02T00:23:30.685Z,33.96
2023-03-02T00:23:52.778Z,33.93
2023-03-02T00:24:15.527Z,33.92
2023-03-02T00:24:37.418Z,34.00
2023-03-02T00:24:59.955Z,33.80
2023-03-02T00:25:21.661Z,34.15
2023-03-02T00:25:43.282Z,33.87
2023-03-02T00:26:05.709Z,34.10
2023-03-02T00:26:27.917Z,34.17
2023-03-02T00:26:50.614Z,33.87
2023-03-02T00:27:12.521Z,34.15
2023-03-02T00:27:37.113Z,34.28
2023-03-02T00:27:58.747Z,34.04
2023-03-02T00:28:20.385Z,34.11
2023-03-02T00:28:41.962Z,34.07
2023-03-02T00:29:05.054Z,34.03
2023-03-02T00:29:26.667Z,34.08
2023-03-02T00:29:48.464Z,33.88
2023-03-02T00:30:12.102Z,33.83
2023-03-02T00:30:33.859Z,34.07
2023-03-02T00:30:56.546Z,34.15
2023-03-02T00:31:18.464Z,34.21
2023-03-02T00:31:40.353Z,34.10
2023-03-02T00:32:03.764Z,34.16
2023-03-02T00:32:26.800Z,34.08
2023-03-02T00:32:49.564Z,34.12
2023-03-02T00:33:11.203Z,34.00
2023-03-02T00:33:33.178Z,33.72
2023-03-02T00:33:54.888Z,33.79
2023-03-02T00:34:17.746Z,34.15
2023-03-02T00:34:39.430Z,34.42
2023-03-02T00:35:01.144Z,34.35
2023-03-02T00:35:23.672Z,34.23
2023-03-02T00:35:45.332Z,33.98
2023-03-02T00:36:15.989Z,34.33
2023-03-02T00:36:37.849Z,34.27
2023-03-02T00:36:59.602Z,34.12
2023-03-02T00:37:22.559Z,33.97
2023-03-02T00:37:45.092Z,34.03
2023-03-02T00:38:08.239Z,33.90
2023-03-02T00:38:30.231Z,34.02
2023-03-02T00:38:52.277Z,34.13
2023-03-02T00:39:14.283Z,34.02
2023-03-02T00:39:36.875Z,34.04
2023-03-02T00:39:58.441Z,34.11
2023-03-02T00:40:20.112Z,34.08
2023-03-02T00:40:45.733Z,34.08
2023-03-02T00:41:08.476Z,34.17
2023-03-02T00:41:30.345Z,34.11
2023-03-02T00:41:51.988Z,34.14
2023-03-02T00:42:13.893Z,34.26
2023-03-02T00:42:37.322Z,34.32
2023-03-02T00:42:58.914Z,34.33
2023-03-02T00:43:22.801Z,34.24
2023-03-02T00:43:44.642Z,34.05
2023-03-02T00:44:07.194Z,34.39
2023-03-02T00:44:28.836Z,34.28
2023-03-02T00:44:52.478Z,34.33
2023-03-02T00:45:14.229Z,34.21
2023-03-02T00:45:35.837Z,34.07
2023-03-02T00:45:59.001Z,33.68
2023-03-02T00:46:24.334Z,34.23
2023-03-02T00:46:46.382Z,34.23
2023-03-02T00:47:08.015Z,34.01
2023-03-02T00:47:30.790Z,34.10
2023-03-02T00:47:52.457Z,34.17
2023-03-02T00:48:24.686Z,34.07
2023-03-02T00:48:46.689Z,34.26
2023-03-02T00:49:08.866Z,34.29
2023-03-02T00:49:31.419Z,34.40
2023-03-02T00:49:53.035Z,34.31
2023-03-02T00:50:14.636Z,34.15
2023-03-02T00:50:40.826Z,34.27
2023-03-02T00:51:03.384Z,34.21
2023-03-02T00:51:25.135Z,34.51
2023-03-02T00:51:46.956Z,34.30
2023-03-02T00:52:08.644Z,34.46
2023-03-02T00:52:32.761Z,34.42
2023-03-02T00:52:54.430Z,34.40
2023-03-02T00:53:16.234Z,34.46
2023-03-02T00:53:38.862Z,34.42
2023-03-02T00:54:02.908Z,34.31
2023-03-02T00:54:25.564Z,34.22
2023-03-02T00:54:47.172Z,34.26
2023-03-02T00:55:10.234Z,34.11
2023-03-02T00:55:31.950Z,34.36
2023-03-02T00:55:54.506Z,34.04
2023-03-02T00:56:17.934Z,34.20
2023-03-02T00:56:43.725Z,34.02
2023-03-02T00:57:05.309Z,34.05
2023-03-02T00:57:26.993Z,34.27
2023-03-02T00:57:55.117Z,34.40
2023-03-02T00:58:22.259Z,34.39
2023-03-02T00:58:43.818Z,34.58
2023-03-02T00:59:06.077Z,34.46
2023-03-02T00:59:29.270Z,34.30
2023-03-02T01:00:00.471Z,34.28
2023-03-02T01:00:28.368Z,34.33
2023-03-02T01:00:53.494Z,34.26
2023-03-02T01:01:18.273Z,34.42
2023-03-02T01:01:43.048Z,34.65
2023-03-02T01:02:05.504Z,34.57
2023-03-02T01:02:28.980Z,34.66
2023-03-02T01:02:51.147Z,34.68
2023-03-02T01:03:12.803Z,34.62
2023-03-02T01:03:34.847Z,34.62
2023-03-02T01:03:56.519Z,34.67
2023-03-02T01:04:19.391Z,34.71
2023-03-02T01:04:43.551Z,34.73
2023-03-02T01:05:05.824Z,34.81
2023-03-02T01:05:28.353Z,34.58
2023-03-02T01:05:55.257Z,34.56
2023-03-02T01:06:20.851Z,34.76
2023-03-02T01:06:47.106Z,34.69
2023-03-02T01:07:11.719Z,34.83
2023-03-02T01:07:34.664Z,34.98
2023-03-02T01:07:57.266Z,34.70
2023-03-02T01:08:18.909Z,34.93
2023-03-02T01:08:40.532Z,34.68
2023-03-02T01:09:02.173Z,34.84
2023-03-02T01:09:25.017Z,34.81
2023-03-02T01:09:48.401Z,34.76
2023-03-02T01:10:11.589Z,34.69
2023-03-02T01:10:34.221Z,34.97
2023-03-02T01:10:56.929Z,34.83
2023-03-02T01:11:21.688Z,34.87
2023-03-02T01:11:43.406Z,34.78
2023-03-02T01:12:09.254Z,34.89
2023-03-02T01:12:33.136Z,34.89
2023-03-02T01:12:54.856Z,34.75
2023-03-02T01:13:17.686Z,34.95
2023-03-02T01:13:39.319Z,35.05
2023-03-02T01:14:01.862Z,35.06
2023-03-02T01:14:24.661Z,35.02
2023-03-02T01:14:48.637Z,35.16
2023-03-02T01:15:11.146Z,35.12
2023-03-02T01:15:34.363Z,34.99
2023-03-02T01:16:02.678Z,35.08
2023-03-02T01:16:24.457Z,34.95
2023-03-02T01:16:47.229Z,34.86
2023-03-02T01:17:10.755Z,35.03
2023-03-02T01:17:34.273Z,34.83
2023-03-02T01:17:56.356Z,35.17
2023-03-02T01:18:17.932Z,34.99
2023-03-02T01:18:40.660Z,35.00
2023-03-02T01:19:02.709Z,35.02
2023-03-02T01:19:24.310Z,34.72
2023-03-02T01:19:46.375Z,35.05
2023-03-02T01:20:19.937Z,34.90
2023-03-02T01:20:41.671Z,34.88
2023-03-02T01:21:05.344Z,35.08
2023-03-02T01:21:26.964Z,35.17
2023-03-02T01:21:51.057Z,35.18
2023-03-02T01:22:12.717Z,35.28
2023-03-02T01:22:35.643Z,35.07
2023-03-02T01:22:57.443Z,35.29
2023-03-02T01:23:19.131Z,35.01
2023-03-02T01:23:42.081Z,35.17
2023-03-02T01:24:04.445Z,35.43
2023-03-02T01:24:26.318Z,35.33
2023-03-02T01:24:48.033Z,35.33
2023-03-02T01:25:11.765Z,35.46
2023-03-02T01:25:34.810Z,35.12
2023-03-02T01:25:56.469Z,35.33
2023-03-02T01:26:18.081Z,35.12
2023-03-02T01:26:39.710Z,35.25
2023-03-02T01:27:02.381Z,35.21
2023-03-02T01:27:24.095Z,35.25
2023-03-02T01:27:46.149Z,35.14
2023-03-02T01:28:07.703Z,35.29
2023-03-02T01:28:30.340Z,35.12
2023-03-02T01:28:55.385Z,35.45
2023-03-02T01:29:17.148Z,35.29
2023-03-02T01:29:39.778Z,35.26
2023-03-02T01:30:01.494Z,35.43
2023-03-02T01:30:23.176Z,35.66
2023-03-02T01:30:44.775Z,35.46
2023-03-02T01:31:06.492Z,35.47
2023-03-02T01:31:30.381Z,35.32
2023-03-02T01:31:52.293Z,35.16
2023-03-02T01:32:14.055Z,35.48
2023-03-02T01:32:35.955Z,35.38
2023-03-02T01:32:58.596Z,35.56
2023-03-02T01:33:21.318Z,35.26
2023-03-02T01:33:42.963Z,35.28
2023-03-02T01:34:04.646Z,35.40
2023-03-02T01:34:27.243Z,35.30
2023-03-02T01:34:48.906Z,35.39
2023-03-02T01:35:10.597Z,35.42
2023-03-02T01:35:32.371Z,35.47
2023-03-02T01:35:54.311Z,35.43
2023-03-02T01:36:17.227Z,35.66
2023-03-02T01:36:38.886Z,35.59
2023-03-02T01:37:00.770Z,35.59
2023-03-02T01:37:22.931Z,35.44
2023-03-02T01:37:46.878Z,35.43
2023-03-02T01:38:09.901Z,35.60
2023-03-02T01:38:32.023Z,35.42
2023-03-02T01:38:54.218Z,35.63
2023-03-02T01:39:16.198Z,35.86
2023-03-02T01:40:22.279Z,35.75
2023-03-02T01:40:43.913Z,35.82
2023-03-02T01:41:05.701Z,35.78
2023-03-02T01:41:28.450Z,35.83
2023-03-02T01:41:52.127Z,35.87
2023-03-02T01:42:16.271Z,36.41
2023-03-02T01:42:39.581Z,36.28
2023-03-02T01:43:04.577Z,36.28
2023-03-02T01:43:29.226Z,36.09
2023-03-02T01:43:50.992Z,35.97
2023-03-02T01:44:35.607Z,36.42
2023-03-02T01:44:59.449Z,36.38
2023-03-02T01:45:46.234Z,36.63
2023-03-02T01:46:15.420Z,36.44
2023-03-02T01:46:41.641Z,36.30
2023-03-02T01:47:06.028Z,36.52
2023-03-02T01:47:32.801Z,36.36
2023-03-02T01:48:00.710Z,36.57
2023-03-02T01:48:27.853Z,36.38
2023-03-02T01:48:53.880Z,36.16
2023-03-02T01:49:23.866Z,36.70
2023-03-02T01:49:55.443Z,36.72
2023-03-02T01:50:21.336Z,36.55
2023-03-02T01:50:45.165Z,36.35
2023-03-02T01:51:08.786Z,36.39
2023-03-02T01:51:36.284Z,36.39
2023-03-02T01:51:58.028Z,36.58
2023-03-02T01:52:20.989Z,36.73
2023-03-02T01:52:44.082Z,36.59
2023-03-02T01:53:07.514Z,36.62
2023-03-02T01:53:32.053Z,36.59
2023-03-02T01:53:59.414Z,36.54
2023-03-02T01:54:23.381Z,36.32
2023-03-02T01:54:50.490Z,36.41
2023-03-02T01:55:17.102Z,36.46
2023-03-02T01:55:39.675Z,36.71
2023-03-02T01:56:07.152Z,36.73
2023-03-02T01:56:31.668Z,36.52
2023-03-02T01:56:58.155Z,36.66
2023-03-02T01:57:25.931Z,36.41
2023-03-02T01:57:50.234Z,36.60
2023-03-02T01:58:13.466Z,36.55
2023-03-02T01:58:37.010Z,36.72
2023-03-02T01:59:03.294Z,36.69
2023-03-02T01:59:27.855Z,36.57
2023-03-02T01:59:54.606Z,36.75
2023-03-02T02:00:24.048Z,36.84
2023-03-02T02:00:46.447Z,36.67
2023-03-02T02:01:15.648Z,36.79
2023-03-02T02:01:42.427Z,37.02
2023-03-02T02:02:09.049Z,36.80
2023-03-02T02:02:30.746Z,36.65
2023-03-02T02:02:54.748Z,36.85
2023-03-02T02:03:24.512Z,36.82
2023-03-02T02:03:50.023Z,37.18
2023-03-02T02:04:12.937Z,36.97
2023-03-02T02:04:39.910Z,36.71
2023-03-02T02:05:05.872Z,36.90
2023-03-02T02:05:28.376Z,36.93
2023-03-02T02:06:00.135Z,36.88
2023-03-02T02:06:25.678Z,37.29
2023-03-02T02:06:54.020Z,36.92
2023-03-02T02:07:16.138Z,36.83
2023-03-02T02:07:38.653Z,36.81
2023-03-02T02:08:01.543Z,37.01
2023-03-02T02:08:25.429Z,36.98
2023-03-02T02:08:48.735Z,37.27
2023-03-02T02:09:14.244Z,37.31
2023-03-02T02:09:41.178Z,37.02
2023-03-02T02:10:03.779Z,37.14
2023-03-02T02:10:25.668Z,37.15
2023-03-02T02:10:47.421Z,37.13
2023-03-02T02:11:10.105Z,37.29
2023-03-02T02:11:31.695Z,37.01
2023-03-02T02:11:53.359Z,37.11
2023-03-02T02:12:16.553Z,37.34
2023-03-02T02:12:39.138Z,37.38
2023-03-02T02:13:01.532Z,37.50
2023-03-02T02:13:23.369Z,37.51
2023-03-02T02:13:45.504Z,37.25
2023-03-02T02:14:07.521Z,37.24
2023-03-02T02:14:30.209Z,37.25
2023-03-02T02:14:53.947Z,37.31
2023-03-02T02:15:15.581Z,37.24
2023-03-02T02:15:38.865Z,37.31
2023-03-02T02:16:01.784Z,37.28
2023-03-02T02:16:23.763Z,37.44
2023-03-02T02:16:45.602Z,37.26
2023-03-02T02:17:08.953Z,37.30
2023-03-02T02:17:31.360Z,37.06
2023-03-02T02:17:54.356Z,37.26
2023-03-02T02:18:17.022Z,37.24
2023-03-02T02:18:41.026Z,37.21
2023-03-02T02:19:06.540Z,37.28
2023-03-02T02:19:40.017Z,37.35
2023-03-02T02:20:19.506Z,37.37
2023-03-02T02:20:45.211Z,37.36
2023-03-02T02:21:07.909Z,37.55
2023-03-02T02:21:30.551Z,37.53
2023-03-02T02:21:52.284Z,37.38
2023-03-02T02:22:22.400Z,37.50
2023-03-02T02:22:56.454Z,37.23
2023-03-02T02:23:27.983Z,37.67
2023-03-02T02:24:00.894Z,37.60
2023-03-02T02:24:30.089Z,37.42
2023-03-02T02:24:57.222Z,37.79
2023-03-02T02:25:33.397Z,37.45
2023-03-02T02:26:12.820Z,37.69
2023-03-02T02:26:38.552Z,37.45
2023-03-02T02:27:01.688Z,37.55
2023-03-02T02:27:33.705Z,37.40
2023-03-02T02:27:57.161Z,37.45
2023-03-02T02:28:24.068Z,37.19
2023-03-02T02:28:58.573Z,37.03
2023-03-02T02:29:26.736Z,37.13
2023-03-02T02:29:52.447Z,37.55
2023-03-02T02:30:17.353Z,37.91
2023-03-02T02:30:40.613Z,37.52
2023-03-02T02:31:10.844Z,37.56
2023-03-02T02:31:38.637Z,37.63
2023-03-02T02:32:06.617Z,37.45
2023-03-02T02:32:32.442Z,37.32
2023-03-02T02:32:56.774Z,37.28
2023-03-02T02:33:22.093Z,37.12
2023-03-02T02:33:48.316Z,37.06
2023-03-02T02:34:14.161Z,37.47
2023-03-02T02:34:40.510Z,37.25
2023-03-02T02:35:05.567Z,37.29
2023-03-02T02:35:31.240Z,37.09
2023-03-02T02:36:02.061Z,37.31
2023-03-02T02:36:33.353Z,36.89
2023-03-02T02:37:04.561Z,36.99
2023-03-02T02:37:30.904Z,37.13
2023-03-02T02:37:57.245Z,37.33
2023-03-02T02:38:21.929Z,37.23
2023-03-02T02:38:48.148Z,37.20
2023-03-02T02:39:19.446Z,37.33
2023-03-02T02:39:45.838Z,37.34
2023-03-02T02:40:15.384Z,37.21
2023-03-02T02:40:46.114Z,37.25
2023-03-02T02:41:16.560Z,37.24
2023-03-02T02:41:40.024Z,37.45
2023-03-02T02:42:05.977Z,37.31
2023-03-02T02:42:31.725Z,37.29
2023-03-02T02:42:54.318Z,37.29
2023-03-02T02:43:19.169Z,37.32
2023-03-02T02:43:42.140Z,37.45
2023-03-02T02:44:05.685Z,37.50
2023-03-02T02:44:27.934Z,37.38
2023-03-02T02:44:50.377Z,37.12
2023-03-02T02:45:20.623Z,37.27
2023-03-02T02:45:42.503Z,37.50
2023-03-02T02:46:05.462Z,37.19
2023-03-02T02:46:29.286Z,37.06
2023-03-02T02:46:51.177Z,37.10
2023-03-02T02:47:17.374Z,37.31
2023-03-02T02:47:40.014Z,37.37
2023-03-02T02:48:02.463Z,37.18
2023-03-02T02:48:26.957Z,37.34
2023-03-02T02:48:48.822Z,37.52
2023-03-02T02:49:22.436Z,37.26
2023-03-02T02:49:44.842Z,37.40
2023-03-02T02:50:16.791Z,37.09
2023-03-02T02:50:38.562Z,37.39
2023-03-02T02:51:02.949Z,37.33
2023-03-02T02:51:28.683Z,37.34
2023-03-02T02:51:50.597Z,37.22
2023-03-02T02:52:16.813Z,37.31
2023-03-02T02:52:41.562Z,37.21
2023-03-02T02:53:07.142Z,37.32
2023-03-02T02:53:42.802Z,37.43
2023-03-02T02:54:04.710Z,37.38
2023-03-02T02:54:32.292Z,37.33
2023-03-02T02:54:56.275Z,37.32
2023-03-02T02:55:23.373Z,37.74
2023-03-02T02:55:50.108Z,37.42
2023-03-02T02:56:15.255Z,37.52
2023-03-02T02:56:39.658Z,37.37
2023-03-02T02:57:05.334Z,37.30
2023-03-02T02:57:30.976Z,37.65
2023-03-02T02:57:56.344Z,37.50
2023-03-02T02:58:30.060Z,37.48
2023-03-02T02:58:53.995Z,37.38
2023-03-02T02:59:20.091Z,37.41
2023-03-02T02:59:45.759Z,37.44
2023-03-02T03:00:19.125Z,37.24
2023-03-02T03:00:42.385Z,37.26
2023-03-02T03:01:04.872Z,37.45
2023-03-02T03:01:29.111Z,37.44
2023-03-02T03:01:52.538Z,37.68
2023-03-02T03:02:20.840Z,37.74
2023-03-02T03:02:45.283Z,37.87
2023-03-02T03:03:30.615Z,37.22
2023-03-02T03:03:58.936Z,37.44
2023-03-02T03:04:24.723Z,37.29
2023-03-02T03:04:47.193Z,37.14
2023-03-02T03:05:14.475Z,37.74
2023-03-02T03:05:36.176Z,37.35
2023-03-02T03:06:00.369Z,37.58
2023-03-02T03:06:25.832Z,37.54
2023-03-02T03:06:53.165Z,37.71
2023-03-02T03:07:20.518Z,37.43
2023-03-02T03:07:42.407Z,37.46
2023-03-02T03:08:09.008Z,37.64
2023-03-02T03:09:01.965Z,37.80
2023-03-02T03:09:32.740Z,37.92
2023-03-02T03:10:01.331Z,37.93
2023-03-02T03:10:29.397Z,37.88
2023-03-02T03:10:52.342Z,38.06
2023-03-02T03:11:19.336Z,37.90
2023-03-02T03:11:43.471Z,37.67
2023-03-02T03:12:15.063Z,37.95
2023-03-02T03:12:39.625Z,38.18
2023-03-02T03:13:02.253Z,38.01
2023-03-02T03:13:24.178Z,37.84
2023-03-02T03:13:47.243Z,37.68
2023-03-02T03:14:12.670Z,37.53
2023-03-02T03:14:36.858Z,37.76
2023-03-02T03:15:01.286Z,37.64
2023-03-02T03:15:23.140Z,37.78
2023-03-02T03:15:45.976Z,37.68
2023-03-02T03:16:11.249Z,37.75
2023-03-02T03:16:33.808Z,37.59
2023-03-02T03:16:56.347Z,37.88
2023-03-02T03:17:19.095Z,37.91
2023-03-02T03:17:48.143Z,37.50
2023-03-02T03:18:09.783Z,37.42
2023-03-02T03:18:32.874Z,37.71
2023-03-02T03:18:56.118Z,37.59
2023-03-02T03:19:22.926Z,37.55
2023-03-02T03:19:46.643Z,37.55
2023-03-02T03:20:09.783Z,37.42
2023-03-02T03:20:36.364Z,37.57
2023-03-02T03:20:58.094Z,37.78
2023-03-02T03:21:20.684Z,37.79
2023-03-02T03:21:42.460Z,37.36
2023-03-02T03:22:04.600Z,37.69
2023-03-02T03:22:30.908Z,37.63
2023-03-02T03:22:53.376Z,37.86
2023-03-02T03:23:15.416Z,37.50
2023-03-02T03:23:38.249Z,37.87
2023-03-02T03:24:01.329Z,37.93
2023-03-02T03:24:25.478Z,37.78
2023-03-02T03:24:47.963Z,37.72
2023-03-02T03:25:15.617Z,37.90
2023-03-02T03:25:41.715Z,37.75
2023-03-02T03:26:05.173Z,37.86
2023-03-02T03:26:28.213Z,37.86
2023-03-02T03:26:50.263Z,37.89
2023-03-02T03:27:15.466Z,37.75
2023-03-02T03:27:39.038Z,37.66
2023-03-02T03:28:00.658Z,37.75
2023-03-02T03:28:22.553Z,37.84
2023-03-02T03:28:44.409Z,37.71
2023-03-02T03:29:06.163Z,37.96
2023-03-02T03:29:30.517Z,37.68
2023-03-02T03:29:54.987Z,37.32
2023-03-02T03:30:17.417Z,37.74
2023-03-02T03:30:39.497Z,37.80
2023-03-02T03:31:01.352Z,37.58
2023-03-02T03:31:24.721Z,37.85
2023-03-02T03:31:46.940Z,37.80
2023-03-02T03:32:09.243Z,37.61
2023-03-02T03:32:35.338Z,37.58
2023-03-02T03:32:57.095Z,37.50
2023-03-02T03:33:19.724Z,37.70
2023-03-02T03:33:41.537Z,37.74
2023-03-02T03:34:03.605Z,37.77
2023-03-02T03:34:29.917Z,37.57
2023-03-02T03:34:52.489Z,37.64
2023-03-02T03:35:21.577Z,37.70
2023-03-02T03:35:43.305Z,37.71
2023-03-02T03:36:06.025Z,37.94
2023-03-02T03:36:30.056Z,37.81
2023-03-02T03:36:52.246Z,37.76
2023-03-02T03:37:17.701Z,37.89
2023-03-02T03:37:41.082Z,37.91
2023-03-02T03:38:06.023Z,37.80
2023-03-02T03:38:27.879Z,37.79
2023-03-02T03:38:49.808Z,37.70
2023-03-02T03:39:12.582Z,37.85
2023-03-02T03:39:36.065Z,37.87
2023-03-02T03:39:58.734Z,37.61
2023-03-02T03:40:20.581Z,38.08
2023-03-02T03:40:43.219Z,37.78
2023-03-02T03:41:06.048Z,37.86
2023-03-02T03:41:30.165Z,37.76
2023-03-02T03:41:51.874Z,37.75
2023-03-02T03:42:13.641Z,38.04
2023-03-02T03:42:37.268Z,37.95
2023-03-02T03:42:59.317Z,37.93
2023-03-02T03:43:21.461Z,37.77
2023-03-02T03:43:47.098Z,37.65
2023-03-02T03:44:10.505Z,37.83
2023-03-02T03:44:34.560Z,37.72
2023-03-02T03:44:56.381Z,37.79
2023-03-02T03:45:18.517Z,38.01
2023-03-02T03:45:40.455Z,37.74
2023-03-02T03:46:03.815Z,37.65
2023-03-02T03:46:25.743Z,38.02
2023-03-02T03:46:47.456Z,37.83
2023-03-02T03:47:09.149Z,37.85
2023-03-02T03:47:31.933Z,37.58
2023-03-02T03:47:54.379Z,37.61
2023-03-02T03:48:16.147Z,37.47
2023-03-02T03:48:37.812Z,37.76
2023-03-02T03:48:59.779Z,37.77
2023-03-02T03:49:22.460Z,38.02
2023-03-02T03:49:44.447Z,37.70
2023-03-02T03:50:06.890Z,37.99
2023-03-02T03:50:28.784Z,37.88
2023-03-02T03:50:52.193Z,37.98
2023-03-02T03:51:14.134Z,38.02
2023-03-02T03:51:35.887Z,37.91
2023-03-02T03:51:59.388Z,37.79
2023-03-02T03:52:30.269Z,37.83
2023-03-02T03:52:57.183Z,37.95
2023-03-02T03:53:21.895Z,38.14
2023-03-02T03:53:43.978Z,37.86
2023-03-02T03:54:09.386Z,37.97
2023-03-02T03:54:35.327Z,37.95
2023-03-02T03:54:57.672Z,38.05
2023-03-02T03:55:19.861Z,38.06
2023-03-02T03:55:44.239Z,37.91
2023-03-02T03:56:06.483Z,37.95
2023-03-02T03:56:31.811Z,38.26
2023-03-02T03:56:53.624Z,38.32
2023-03-02T03:57:16.165Z,38.08
2023-03-02T03:57:38.309Z,38.20
2023-03-02T03:58:00.115Z,38.22
2023-03-02T03:58:21.825Z,38.18
2023-03-02T03:58:43.713Z,38.18
2023-03-02T03:59:08.814Z,38.08
2023-03-02T03:59:36.207Z,38.29
2023-03-02T03:59:58.766Z,38.33
2023-03-02T04:00:24.877Z,38.21
2023-03-02T04:00:57.822Z,38.26
2023-03-02T04:01:19.951Z,38.17
2023-03-02T04:01:44.982Z,38.21
2023-03-02T04:02:07.794Z,38.07
2023-03-02T04:02:33.057Z,38.27
2023-03-02T04:02:54.940Z,38.07
2023-03-02T04:03:20.013Z,38.14
2023-03-02T04:03:41.658Z,38.27
2023-03-02T04:04:04.359Z,38.28
2023-03-02T04:04:28.114Z,38.24
2023-03-02T04:04:50.260Z,38.15
2023-03-02T04:05:15.190Z,38.41
2023-03-02T04:05:36.857Z,38.48
2023-03-02T04:05:59.787Z,38.21
2023-03-02T04:06:21.463Z,38.24
2023-03-02T04:06:44.836Z,37.91
2023-03-02T04:07:06.683Z,38.11
2023-03-02T04:07:28.546Z,38.08
2023-03-02T04:07:50.505Z,38.22
2023-03-02T04:08:14.087Z,38.02
2023-03-02T04:08:35.686Z,37.97
2023-03-02T04:08:58.179Z,37.99
2023-03-02T04:09:20.049Z,37.92
2023-03-02T04:09:43.542Z,38.04
2023-03-02T04:10:09.210Z,37.85
2023-03-02T04:10:33.052Z,38.02
2023-03-02T04:10:55.541Z,38.01
2023-03-02T04:11:18.200Z,38.21
2023-03-02T04:11:44.845Z,38.23
2023-03-02T04:12:09.416Z,38.03
2023-03-02T04:12:35.717Z,38.01
2023-03-02T04:12:57.924Z,37.88
2023-03-02T04:13:26.133Z,38.13
2023-03-02T04:13:48.866Z,38.19
2023-03-02T04:14:12.705Z,38.08
2023-03-02T04:14:35.487Z,37.68
2023-03-02T04:14:58.193Z,38.27
2023-03-02T04:15:20.398Z,38.31
2023-03-02T04:15:46.811Z,38.11
2023-03-02T04:16:09.014Z,38.18
2023-03-02T04:16:33.068Z,38.23
2023-03-02T04:16:56.292Z,38.06
2023-03-02T04:17:18.813Z,38.18
2023-03-02T04:17:43.500Z,38.01
2023-03-02T04:18:06.358Z,37.97
2023-03-02T04:18:29.598Z,38.18
2023-03-02T04:18:51.220Z,37.94
2023-03-02T04:19:14.087Z,38.05
2023-03-02T04:19:37.998Z,37.98
2023-03-02T04:20:00.395Z,38.13
2023-03-02T04:20:23.900Z,38.07
2023-03-02T04:20:48.297Z,38.23
2023-03-02T04:21:10.905Z,38.20
2023-03-02T04:21:32.478Z,38.41
2023-03-02T04:21:54.890Z,38.51
2023-03-02T04:22:20.019Z,38.29
2023-03-02T04:22:41.622Z,38.04
2023-03-02T04:23:05.047Z,38.21
2023-03-02T04:23:26.792Z,38.33
2023-03-02T04:23:48.460Z,38.44
2023-03-02T04:24:10.331Z,38.41
2023-03-02T04:24:35.261Z,38.02
2023-03-02T04:24:59.631Z,37.97
2023-03-02T04:25:23.957Z,38.23
2023-03-02T04:25:48.760Z,38.24
2023-03-02T04:26:14.430Z,38.09
2023-03-02T04:26:37.212Z,38.17
2023-03-02T04:27:01.241Z,38.20
2023-03-02T04:27:23.296Z,38.14
2023-03-02T04:27:45.285Z,38.11
2023-03-02T04:28:07.091Z,38.13
2023-03-02T04:28:33.128Z,38.28
2023-03-02T04:28:54.861Z,38.04
2023-03-02T04:29:17.936Z,38.32
2023-03-02T04:29:40.545Z,38.39
2023-03-02T04:30:04.226Z,38.15
2023-03-02T04:30:28.148Z,38.25
2023-03-02T04:30:51.511Z,38.17
2023-03-02T04:31:13.407Z,38.13
2023-03-02T04:31:35.362Z,38.16
2023-03-02T04:31:58.272Z,38.20
2023-03-02T04:32:21.145Z,38.18
2023-03-02T04:32:47.887Z,38.32
2023-03-02T04:33:09.779Z,38.12
2023-03-02T04:33:32.489Z,38.18
2023-03-02T04:33:55.367Z,38.25
2023-03-02T04:34:17.133Z,38.46
2023-03-02T04:34:40.056Z,38.26
2023-03-02T04:35:02.902Z,38.11
2023-03-02T04:35:25.569Z,38.32
2023-03-02T04:35:47.227Z,38.38
2023-03-02T04:36:09.602Z,38.13
2023-03-02T04:36:33.189Z,38.36
2023-03-02T04:36:57.286Z,38.40
2023-03-02T04:37:18.919Z,38.39
2023-03-02T04:37:41.635Z,38.27
2023-03-02T04:38:04.387Z,38.24
2023-03-02T04:38:29.420Z,38.52
2023-03-02T04:38:51.595Z,38.69
2023-03-02T04:39:15.420Z,38.74
2023-03-02T04:39:39.567Z,38.42
2023-03-02T04:40:02.162Z,38.47
2023-03-02T04:40:23.877Z,38.40
2023-03-02T04:40:46.096Z,38.38
2023-03-02T04:41:07.755Z,38.48
2023-03-02T04:41:30.403Z,38.44
2023-03-02T04:41:52.992Z,38.46
2023-03-02T04:42:15.920Z,38.01
2023-03-02T04:42:37.516Z,38.16
2023-03-02T04:43:00.064Z,38.01
2023-03-02T04:43:21.650Z,38.33
2023-03-02T04:43:43.499Z,38.48
2023-03-02T04:44:05.269Z,38.48
2023-03-02T04:44:28.073Z,38.41
2023-03-02T04:44:50.151Z,38.42
2023-03-02T04:45:13.367Z,38.21
2023-03-02T04:45:35.010Z,38.19
2023-03-02T04:45:59.926Z,38.43
2023-03-02T04:46:24.331Z,38.28
2023-03-02T04:46:47.001Z,38.55
2023-03-02T04:47:09.688Z,38.30
2023-03-02T04:47:32.257Z,38.46
2023-03-02T04:47:54.233Z,38.42
2023-03-02T04:48:15.947Z,38.53
2023-03-02T04:48:37.522Z,38.50
2023-03-02T04:49:00.099Z,38.55
2023-03-02T04:49:21.791Z,38.60
2023-03-02T04:49:43.612Z,38.64
2023-03-02T04:50:06.538Z,38.36
2023-03-02T04:50:28.193Z,38.38
2023-03-02T04:50:50.924Z,38.70
2023-03-02T04:51:18.751Z,38.70
2023-03-02T04:51:43.413Z,38.64
2023-03-02T04:52:07.413Z,38.68
2023-03-02T04:52:30.076Z,38.51
2023-03-02T04:52:51.715Z,38.66
2023-03-02T04:53:13.442Z,38.39
2023-03-02T04:53:35.069Z,38.58
2023-03-02T04:54:00.826Z,38.50
2023-03-02T04:54:25.572Z,38.53
2023-03-02T04:54:50.061Z,38.63
2023-03-02T04:55:18.073Z,38.53
2023-03-02T04:55:39.799Z,38.33
2023-03-02T04:56:02.354Z,38.60
2023-03-02T04:56:24.517Z,38.50
2023-03-02T04:56:48.388Z,38.57
2023-03-02T04:57:10.022Z,38.61
2023-03-02T04:57:33.517Z,38.73
2023-03-02T04:57:57.493Z,38.93
2023-03-02T04:58:19.126Z,38.65
2023-03-02T04:58:40.718Z,38.56
2023-03-02T04:59:02.472Z,38.62
2023-03-02T04:59:27.262Z,38.72
2023-03-02T04:59:50.120Z,38.93
2023-03-02T05:00:12.856Z,38.89
2023-03-02T05:00:35.261Z,38.84
2023-03-02T05:01:02.143Z,38.73
2023-03-02T05:01:24.747Z,38.79
2023-03-02T05:01:47.546Z,38.80
2023-03-02T05:02:10.288Z,38.82
2023-03-02T05:02:32.938Z,38.58
2023-03-02T05:02:54.858Z,38.77
2023-03-02T05:03:16.420Z,38.93
2023-03-02T05:03:38.080Z,38.44
2023-03-02T05:04:03.012Z,38.32
2023-03-02T05:04:25.150Z,38.51
2023-03-02T05:04:46.915Z,38.67
2023-03-02T05:05:15.681Z,38.52
2023-03-02T05:05:38.451Z,38.69
2023-03-02T05:06:02.044Z,38.89
2023-03-02T05:06:25.038Z,38.93
2023-03-02T05:06:46.713Z,38.81
2023-03-02T05:07:09.363Z,38.68
2023-03-02T05:07:31.059Z,38.75
2023-03-02T05:07:53.577Z,39.07
2023-03-02T05:08:15.158Z,38.90
2023-03-02T05:08:37.250Z,38.85